KGFL/GFL METAR and TAF weather

Enter ICAO airport designator
Station Type Date Time Source
KGFL METAR 2021/10/22 19:53 UTC NOAA

KGFL 221953Z AUTO 22012KT 10SM SCT050 15/06 A2988 RMK AO2 SLP119 T01500056


Station Type Date Time Source
KGFL Decoded METAR 2021/10/22 19:53 UTC NOAA

FLOYD BENNETT MEMORIAL AIRPORT , NY, United States (KGFL) 43-20N 073-37W 103M
Oct 22, 2021 - 03:53 PM EDT / 2021.10.22 1953 UTC
Wind: from the SW (220 degrees) at 14 MPH (12 KT):0
Visibility: 10 mile(s):0
Sky conditions: partly cloudy
Temperature: 59.0 F (15.0 C)
Dew Point: 42.1 F (5.6 C)
Relative Humidity: 53%
Pressure (altimeter): 29.88 in. Hg (1011 hPa)
ob: KGFL 221953Z AUTO 22012KT 10SM SCT050 15/06 A2988 RMK AO2 SLP119 T01500056
cycle: 20

Station Type Date Time Source
KGFL TAF 2021/10/22 18:22 UTC NOAA

TAF KGFL 221720Z 2218/2318 25007KT P6SM BKN045
FM222000 29007KT P6SM BKN040
FM230200 35003KT P6SM SCT035
FM231300 33005KT P6SM BKN040

Example: see airport list